Aviation Digital Data Service (ADDS)

Output produced by METARs form (2326 UTC 23 March 2019)
found at http://www.aviationweather.gov/metar/data/
 
METAR text: LTAC 232250Z 01009KT CAVOK M02/M09 Q1017 NOSIG RMK RWY21L 02002KT RWY03L 01007KT RWY21R VRB05KT
Conditions at: LTAC (ANKARA/ESENBOGA , TR) observed 2250 UTC 23 March 2019
Temperature: -2.0°C (28°F)
Dewpoint: -9.0°C (16°F) [RH = 59%]
Pressure (altimeter): 30.03 inches Hg (1017.0 mb)
Winds: from the N (10 degrees) at 10 MPH (9 knots; 4.6 m/s)
Visibility: 6 or more miles (10+ km)
Ceiling: ceiling and visibility are OK
Clouds: unknown
Weather: no significant weather observed at this time

METAR text: LTAC 232220Z 01011KT CAVOK M01/M10 Q1018 NOSIG RMK RWY21L 00000KT RWY03L 01010KT RWY21R 08004KT 030V090
Conditions at: LTAC (ANKARA/ESENBOGA , TR) observed 2220 UTC 23 March 2019
Temperature: -1.0°C (30°F)
Dewpoint: -10.0°C (14°F) [RH = 50%]
Pressure (altimeter): 30.06 inches Hg (1018.0 mb)
Winds: from the N (10 degrees) at 13 MPH (11 knots; 5.7 m/s)
Visibility: 6 or more miles (10+ km)
Ceiling: ceiling and visibility are OK
Clouds: unknown
Weather: no significant weather observed at this time

METAR text: LTAC 232150Z 06006KT CAVOK M01/M10 Q1018 NOSIG RMK RWY21L 06006KT RWY03L 07004KT 350V100 RWY21R 09008KT
Conditions at: LTAC (ANKARA/ESENBOGA , TR) observed 2150 UTC 23 March 2019
Temperature: -1.0°C (30°F)
Dewpoint: -10.0°C (14°F) [RH = 50%]
Pressure (altimeter): 30.06 inches Hg (1018.0 mb)
Winds: from the ENE (60 degrees) at 7 MPH (6 knots; 3.1 m/s)
Visibility: 6 or more miles (10+ km)
Ceiling: ceiling and visibility are OK
Clouds: unknown
Weather: no significant weather observed at this time

METAR text: LTAC 232120Z 34010KT CAVOK M00/M10 Q1017 NOSIG RMK RWY21L 32013KT RWY03L 33011KT RWY21R 33010KT
Conditions at: LTAC (ANKARA/ESENBOGA , TR) observed 2120 UTC 23 March 2019
Temperature: 0.0°C (32°F)
Dewpoint: -10.0°C (14°F) [RH = 47%]
Pressure (altimeter): 30.03 inches Hg (1017.0 mb)
Winds: from the NNW (340 degrees) at 12 MPH (10 knots; 5.1 m/s)
Visibility: 6 or more miles (10+ km)
Ceiling: ceiling and visibility are OK
Clouds: unknown
Weather: no significant weather observed at this time

METAR text: LTAC 232050Z 35011KT CAVOK 00/M11 Q1017 NOSIG RMK RWY21L 35013KT RWY03L 35009KT RWY21R 36010KT
Conditions at: LTAC (ANKARA/ESENBOGA , TR) observed 2050 UTC 23 March 2019
Temperature: 0.0°C (32°F)
Dewpoint: -11.0°C (12°F) [RH = 43%]
Pressure (altimeter): 30.03 inches Hg (1017.0 mb)
Winds: from the N (350 degrees) at 13 MPH (11 knots; 5.7 m/s)
Visibility: 6 or more miles (10+ km)
Ceiling: ceiling and visibility are OK
Clouds: unknown
Weather: no significant weather observed at this time

METAR text: LTAC 232020Z 35008KT CAVOK M00/M09 Q1017 NOSIG RMK RWY21L 36007KT 320V050 RWY03L 34006KT RWY21R 03005KT 350V060
Conditions at: LTAC (ANKARA/ESENBOGA , TR) observed 2020 UTC 23 March 2019
Temperature: 0.0°C (32°F)
Dewpoint: -9.0°C (16°F) [RH = 51%]
Pressure (altimeter): 30.03 inches Hg (1017.0 mb)
Winds: from the N (350 degrees) at 9 MPH (8 knots; 4.1 m/s)
Visibility: 6 or more miles (10+ km)
Ceiling: ceiling and visibility are OK
Clouds: unknown
Weather: no significant weather observed at this time

METAR text: LTAC 231950Z 35007KT 9999 FEW040 SCT180 01/M10 Q1017 NOSIG RMK RWY21L 03006KT 360V060 RWY03L 35004KT 320V020 RWY21R 01005KT
Conditions at: LTAC (ANKARA/ESENBOGA , TR) observed 1950 UTC 23 March 2019
Temperature: 1.0°C (34°F)
Dewpoint: -10.0°C (14°F) [RH = 44%]
Pressure (altimeter): 30.03 inches Hg (1017.0 mb)
Winds: from the N (350 degrees) at 8 MPH (7 knots; 3.6 m/s)
Visibility: 6 or more miles (10+ km)
Ceiling: at least 12,000 feet AGL
Clouds: few clouds at 4000 feet AGL
scattered clouds at 18000 feet AGL
Weather: no significant weather observed at this time

METAR text: LTAC 231920Z 01008KT 9999 FEW040 SCT180 02/M08 Q1017 NOSIG RMK RWY21L 02009KT RWY03L 01006KT RWY21R 01010KT
Conditions at: LTAC (ANKARA/ESENBOGA , TR) observed 1920 UTC 23 March 2019
Temperature: 2.0°C (36°F)
Dewpoint: -8.0°C (18°F) [RH = 47%]
Pressure (altimeter): 30.03 inches Hg (1017.0 mb)
Winds: from the N (10 degrees) at 9 MPH (8 knots; 4.1 m/s)
Visibility: 6 or more miles (10+ km)
Ceiling: at least 12,000 feet AGL
Clouds: few clouds at 4000 feet AGL
scattered clouds at 18000 feet AGL
Weather: no significant weather observed at this time

METAR text: LTAC 231850Z 34008KT 300V030 9999 SCT040 BKN200 03/M09 Q1016 NOSIG RMK RWY21L 35010KT RWY03L 34006KT 290V020 RWY21R 36011KT
Conditions at: LTAC (ANKARA/ESENBOGA , TR) observed 1850 UTC 23 March 2019
Temperature: 3.0°C (37°F)
Dewpoint: -9.0°C (16°F) [RH = 41%]
Pressure (altimeter): 30.00 inches Hg (1016.0 mb)
Winds: from the NNW (340 degrees) at 9 MPH (8 knots; 4.1 m/s)
Visibility: 6 or more miles (10+ km)
Ceiling: 20000 feet AGL
Clouds: scattered clouds at 4000 feet AGL
broken clouds at 20000 feet AGL
Weather: no significant weather observed at this time

METAR text: LTAC 231820Z 33012KT 9999 SCT040 BKN200 04/M09 Q1016 NOSIG RMK RWY21L 33013KT RWY03L 32011KT RWY21R 34011KT
Conditions at: LTAC (ANKARA/ESENBOGA , TR) observed 1820 UTC 23 March 2019
Temperature: 4.0°C (39°F)
Dewpoint: -9.0°C (16°F) [RH = 38%]
Pressure (altimeter): 30.00 inches Hg (1016.0 mb)
Winds: from the NNW (330 degrees) at 14 MPH (12 knots; 6.2 m/s)
Visibility: 6 or more miles (10+ km)
Ceiling: 20000 feet AGL
Clouds: scattered clouds at 4000 feet AGL
broken clouds at 20000 feet AGL
Weather: no significant weather observed at this time

METAR text: LTAC 231750Z 32016KT 9999 SCT040 BKN200 04/M06 Q1016 NOSIG RMK RWY21L 31016KT RWY03L 32014KT RWY21R 32013KT
Conditions at: LTAC (ANKARA/ESENBOGA , TR) observed 1750 UTC 23 March 2019
Temperature: 4.0°C (39°F)
Dewpoint: -6.0°C (21°F) [RH = 48%]
Pressure (altimeter): 30.00 inches Hg (1016.0 mb)
Winds: from the NW (320 degrees) at 18 MPH (16 knots; 8.2 m/s)
Visibility: 6 or more miles (10+ km)
Ceiling: 20000 feet AGL
Clouds: scattered clouds at 4000 feet AGL
broken clouds at 20000 feet AGL
Weather: no significant weather observed at this time

METAR text: LTAC 231720Z 31014KT 9999 SCT040 BKN200 05/M07 Q1015 NOSIG RMK RWY21L 30015KT RWY03L 31013KT RWY21R 31014KT
Conditions at: LTAC (ANKARA/ESENBOGA , TR) observed 1720 UTC 23 March 2019
Temperature: 5.0°C (41°F)
Dewpoint: -7.0°C (19°F) [RH = 41%]
Pressure (altimeter): 29.97 inches Hg (1015.0 mb)
Winds: from the NW (310 degrees) at 16 MPH (14 knots; 7.2 m/s)
Visibility: 6 or more miles (10+ km)
Ceiling: 20000 feet AGL
Clouds: scattered clouds at 4000 feet AGL
broken clouds at 20000 feet AGL
Weather: no significant weather observed at this time

METAR text: LTAC 231650Z 32028KT 9999 SCT040 BKN200 05/M08 Q1014 NOSIG RMK RWY21L 31019KT RWY03L 31022KT RWY21R 31016KT
Conditions at: LTAC (ANKARA/ESENBOGA , TR) observed 1650 UTC 23 March 2019
Temperature: 5.0°C (41°F)
Dewpoint: -8.0°C (18°F) [RH = 38%]
Pressure (altimeter): 29.94 inches Hg (1014.0 mb)
Winds: from the NW (320 degrees) at 32 MPH (28 knots; 14.4 m/s)
Visibility: 6 or more miles (10+ km)
Ceiling: 20000 feet AGL
Clouds: scattered clouds at 4000 feet AGL
broken clouds at 20000 feet AGL
Weather: no significant weather observed at this time

METAR text: LTAC 231620Z 32017KT 9999 SCT040 BKN200 06/M06 Q1014 NOSIG RMK RWY21L 31023G34KT RWY03L 32018KT RWY21R 32020G30KT
Conditions at: LTAC (ANKARA/ESENBOGA , TR) observed 1620 UTC 23 March 2019
Temperature: 6.0°C (43°F)
Dewpoint: -6.0°C (21°F) [RH = 42%]
Pressure (altimeter): 29.94 inches Hg (1014.0 mb)
Winds: from the NW (320 degrees) at 20 MPH (17 knots; 8.7 m/s)
Visibility: 6 or more miles (10+ km)
Ceiling: 20000 feet AGL
Clouds: scattered clouds at 4000 feet AGL
broken clouds at 20000 feet AGL
Weather: no significant weather observed at this time

METAR text: LTAC 231550Z 32020G30KT 9999 SCT040 BKN200 07/M08 Q1014 NOSIG RMK RWY21L 32023KT RWY03L 32018KT RWY21R 33015KT
Conditions at: LTAC (ANKARA/ESENBOGA , TR) observed 1550 UTC 23 March 2019
Temperature: 7.0°C (45°F)
Dewpoint: -8.0°C (18°F) [RH = 33%]
Pressure (altimeter): 29.94 inches Hg (1014.0 mb)
Winds: from the NW (320 degrees) at 23 MPH (20 knots; 10.3 m/s)
gusting to 34 MPH (30 knots; 15.4 m/s)
Visibility: 6 or more miles (10+ km)
Ceiling: 20000 feet AGL
Clouds: scattered clouds at 4000 feet AGL
broken clouds at 20000 feet AGL
Weather: no significant weather observed at this time

METAR text: LTAC 231520Z 32018KT 9999 SCT040 BKN200 08/M06 Q1014 NOSIG RMK RWY21L 31020KT RWY03L 32016KT RWY21R 33016KT
Conditions at: LTAC (ANKARA/ESENBOGA , TR) observed 1520 UTC 23 March 2019
Temperature: 8.0°C (46°F)
Dewpoint: -6.0°C (21°F) [RH = 36%]
Pressure (altimeter): 29.94 inches Hg (1014.0 mb)
Winds: from the NW (320 degrees) at 21 MPH (18 knots; 9.3 m/s)
Visibility: 6 or more miles (10+ km)
Ceiling: 20000 feet AGL
Clouds: scattered clouds at 4000 feet AGL
broken clouds at 20000 feet AGL
Weather: no significant weather observed at this time

METAR text: LTAC 231450Z 32017KT 9999 SCT040 SCT200 09/M06 Q1014 NOSIG RMK RWY21L 31018KT RWY03L 32014KT RWY21R 32016KT
Conditions at: LTAC (ANKARA/ESENBOGA , TR) observed 1450 UTC 23 March 2019
Temperature: 9.0°C (48°F)
Dewpoint: -6.0°C (21°F) [RH = 34%]
Pressure (altimeter): 29.94 inches Hg (1014.0 mb)
Winds: from the NW (320 degrees) at 20 MPH (17 knots; 8.7 m/s)
Visibility: 6 or more miles (10+ km)
Ceiling: at least 12,000 feet AGL
Clouds: scattered clouds at 4000 feet AGL
scattered clouds at 20000 feet AGL
Weather: no significant weather observed at this time

METAR text: LTAC 231420Z 33018KT 9999 SCT040 SCT200 10/M05 Q1014 NOSIG RMK RWY21L 31020KT RWY03L 33015KT RWY21R 33015KT 300V360
Conditions at: LTAC (ANKARA/ESENBOGA , TR) observed 1420 UTC 23 March 2019
Temperature: 10.0°C (50°F)
Dewpoint: -5.0°C (23°F) [RH = 34%]
Pressure (altimeter): 29.94 inches Hg (1014.0 mb)
Winds: from the NNW (330 degrees) at 21 MPH (18 knots; 9.3 m/s)
Visibility: 6 or more miles (10+ km)
Ceiling: at least 12,000 feet AGL
Clouds: scattered clouds at 4000 feet AGL
scattered clouds at 20000 feet AGL
Weather: no significant weather observed at this time

METAR text: LTAC 231350Z 34016KT 9999 SCT040 SCT200 10/M05 Q1014 NOSIG RMK RWY21L 31015KT 280V340 RWY03L 34014KT RWY21R 33013KT 290V360
Conditions at: LTAC (ANKARA/ESENBOGA , TR) observed 1350 UTC 23 March 2019
Temperature: 10.0°C (50°F)
Dewpoint: -5.0°C (23°F) [RH = 34%]
Pressure (altimeter): 29.94 inches Hg (1014.0 mb)
Winds: from the NNW (340 degrees) at 18 MPH (16 knots; 8.2 m/s)
Visibility: 6 or more miles (10+ km)
Ceiling: at least 12,000 feet AGL
Clouds: scattered clouds at 4000 feet AGL
scattered clouds at 20000 feet AGL
Weather: no significant weather observed at this time

METAR text: LTAC 231320Z 33020KT 9999 FEW040 SCT200 11/M04 Q1014 NOSIG RMK RWY21L 30018KT RWY03L 33018KT RWY21R 31015KT
Conditions at: LTAC (ANKARA/ESENBOGA , TR) observed 1320 UTC 23 March 2019
Temperature: 11.0°C (52°F)
Dewpoint: -4.0°C (25°F) [RH = 35%]
Pressure (altimeter): 29.94 inches Hg (1014.0 mb)
Winds: from the NNW (330 degrees) at 23 MPH (20 knots; 10.3 m/s)
Visibility: 6 or more miles (10+ km)
Ceiling: at least 12,000 feet AGL
Clouds: few clouds at 4000 feet AGL
scattered clouds at 20000 feet AGL
Weather: no significant weather observed at this time

METAR text: LTAC 231250Z 33017KT 9999 FEW040 12/M04 Q1014 NOSIG RMK RWY21L 31019KT RWY03L 33016KT RWY21R 33015KT 290V350
Conditions at: LTAC (ANKARA/ESENBOGA , TR) observed 1250 UTC 23 March 2019
Temperature: 12.0°C (54°F)
Dewpoint: -4.0°C (25°F) [RH = 32%]
Pressure (altimeter): 29.94 inches Hg (1014.0 mb)
Winds: from the NNW (330 degrees) at 20 MPH (17 knots; 8.7 m/s)
Visibility: 6 or more miles (10+ km)
Ceiling: at least 12,000 feet AGL
Clouds: few clouds at 4000 feet AGL
Weather: no significant weather observed at this time

METAR text: LTAC 231220Z 32015KT 9999 FEW040 12/M04 Q1014 NOSIG RMK RWY21L 31017KT RWY03L 31013KT 280V340 RWY21R 32015KT 280V360
Conditions at: LTAC (ANKARA/ESENBOGA , TR) observed 1220 UTC 23 March 2019
Temperature: 12.0°C (54°F)
Dewpoint: -4.0°C (25°F) [RH = 32%]
Pressure (altimeter): 29.94 inches Hg (1014.0 mb)
Winds: from the NW (320 degrees) at 17 MPH (15 knots; 7.7 m/s)
Visibility: 6 or more miles (10+ km)
Ceiling: at least 12,000 feet AGL
Clouds: few clouds at 4000 feet AGL
Weather: no significant weather observed at this time

METAR text: LTAC 231150Z 31013KT 290V350 9999 FEW040 13/M03 Q1015 NOSIG RMK RWY21L 30016KT RWY03L 32012KT 280V350 RWY21R 32015KT 280V350
Conditions at: LTAC (ANKARA/ESENBOGA , TR) observed 1150 UTC 23 March 2019
Temperature: 13.0°C (55°F)
Dewpoint: -3.0°C (27°F) [RH = 33%]
Pressure (altimeter): 29.97 inches Hg (1015.0 mb)
Winds: from the NW (310 degrees) at 15 MPH (13 knots; 6.7 m/s)
Visibility: 6 or more miles (10+ km)
Ceiling: at least 12,000 feet AGL
Clouds: few clouds at 4000 feet AGL
Weather: no significant weather observed at this time

METAR text: LTAC 231120Z 30014KT 270V330 9999 FEW040 12/M04 Q1015 NOSIG RMK RWY21L 30018KT RWY03L 30014KT 270V340 RWY21R 31016KT 290V350
Conditions at: LTAC (ANKARA/ESENBOGA , TR) observed 1120 UTC 23 March 2019
Temperature: 12.0°C (54°F)
Dewpoint: -4.0°C (25°F) [RH = 32%]
Pressure (altimeter): 29.97 inches Hg (1015.0 mb)
Winds: from the WNW (300 degrees) at 16 MPH (14 knots; 7.2 m/s)
Visibility: 6 or more miles (10+ km)
Ceiling: at least 12,000 feet AGL
Clouds: few clouds at 4000 feet AGL
Weather: no significant weather observed at this time

METAR text: LTAC 231050Z 29012KT 260V340 9999 FEW040 12/M03 Q1015 NOSIG RMK RWY21L 29015KT RWY03L 28011KT 250V320 RWY21R 31014KT
Conditions at: LTAC (ANKARA/ESENBOGA , TR) observed 1050 UTC 23 March 2019
Temperature: 12.0°C (54°F)
Dewpoint: -3.0°C (27°F) [RH = 35%]
Pressure (altimeter): 29.97 inches Hg (1015.0 mb)
Winds: from the WNW (290 degrees) at 14 MPH (12 knots; 6.2 m/s)
Visibility: 6 or more miles (10+ km)
Ceiling: at least 12,000 feet AGL
Clouds: few clouds at 4000 feet AGL
Weather: no significant weather observed at this time

METAR text: LTAC 231020Z 29013KT 250V320 9999 FEW040 13/M05 Q1016 NOSIG RMK RWY21L 27014KT RWY03L 28009KT 230V320 RWY21R 29011KT 240V310
Conditions at: LTAC (ANKARA/ESENBOGA , TR) observed 1020 UTC 23 March 2019
Temperature: 13.0°C (55°F)
Dewpoint: -5.0°C (23°F) [RH = 28%]
Pressure (altimeter): 30.00 inches Hg (1016.0 mb)
Winds: from the WNW (290 degrees) at 15 MPH (13 knots; 6.7 m/s)
Visibility: 6 or more miles (10+ km)
Ceiling: at least 12,000 feet AGL
Clouds: few clouds at 4000 feet AGL
Weather: no significant weather observed at this time

METAR text: LTAC 230950Z 28012KT 250V320 9999 FEW040 13/M05 Q1016 NOSIG RMK RWY21L 28012KT RWY03L 28010KT 240V320 RWY21R 29010KT
Conditions at: LTAC (ANKARA/ESENBOGA , TR) observed 0950 UTC 23 March 2019
Temperature: 13.0°C (55°F)
Dewpoint: -5.0°C (23°F) [RH = 28%]
Pressure (altimeter): 30.00 inches Hg (1016.0 mb)
Winds: from the W (280 degrees) at 14 MPH (12 knots; 6.2 m/s)
Visibility: 6 or more miles (10+ km)
Ceiling: at least 12,000 feet AGL
Clouds: few clouds at 4000 feet AGL
Weather: no significant weather observed at this time

METAR text: LTAC 230920Z 25007KT CAVOK 12/M05 Q1016 NOSIG RMK RWY21L VRB04KT RWY03L VRB07G17KT RWY21R VRB05KT
Conditions at: LTAC (ANKARA/ESENBOGA , TR) observed 0920 UTC 23 March 2019
Temperature: 12.0°C (54°F)
Dewpoint: -5.0°C (23°F) [RH = 30%]
Pressure (altimeter): 30.00 inches Hg (1016.0 mb)
Winds: from the WSW (250 degrees) at 8 MPH (7 knots; 3.6 m/s)
Visibility: 6 or more miles (10+ km)
Ceiling: ceiling and visibility are OK
Clouds: unknown
Weather: no significant weather observed at this time

METAR text: LTAC 230850Z 25003KT CAVOK 11/M07 Q1017 NOSIG RMK RWY21L VRB03KT RWY03L VRB02KT RWY21R VRB04KT
Conditions at: LTAC (ANKARA/ESENBOGA , TR) observed 0850 UTC 23 March 2019
Temperature: 11.0°C (52°F)
Dewpoint: -7.0°C (19°F) [RH = 28%]
Pressure (altimeter): 30.03 inches Hg (1017.0 mb)
Winds: from the WSW (250 degrees) at 3 MPH (3 knots; 1.5 m/s)
Visibility: 6 or more miles (10+ km)
Ceiling: ceiling and visibility are OK
Clouds: unknown
Weather: no significant weather observed at this time

METAR text: LTAC 230820Z VRB03KT CAVOK 10/M08 Q1018 NOSIG RMK RWY21L VRB03KT RWY03L 20003KT 120V280 RWY21R 17004KT 100V240
Conditions at: LTAC (ANKARA/ESENBOGA , TR) observed 0820 UTC 23 March 2019
Temperature: 10.0°C (50°F)
Dewpoint: -8.0°C (18°F) [RH = 27%]
Pressure (altimeter): 30.06 inches Hg (1018.0 mb)
Winds: variable direction winds at 3 MPH (3 knots; 1.5 m/s)
Visibility: 6 or more miles (10+ km)
Ceiling: ceiling and visibility are OK
Clouds: unknown
Weather: no significant weather observed at this time

METAR text: LTAC 230750Z VRB04KT CAVOK 09/M05 Q1018 NOSIG RMK RWY21L 16004KT 100V250 RWY03L VRB03KT RWY21R 19004KT 110V230
Conditions at: LTAC (ANKARA/ESENBOGA , TR) observed 0750 UTC 23 March 2019
Temperature: 9.0°C (48°F)
Dewpoint: -5.0°C (23°F) [RH = 37%]
Pressure (altimeter): 30.06 inches Hg (1018.0 mb)
Winds: variable direction winds at 5 MPH (4 knots; 2.1 m/s)
Visibility: 6 or more miles (10+ km)
Ceiling: ceiling and visibility are OK
Clouds: unknown
Weather: no significant weather observed at this time

METAR text: LTAC 230720Z 16004KT 110V210 CAVOK 08/M04 Q1018 NOSIG RMK RWY21L 14005KT 090V180 RWY03L 13003KT 080V190 RWY21R 16004KT 130V190
Conditions at: LTAC (ANKARA/ESENBOGA , TR) observed 0720 UTC 23 March 2019
Temperature: 8.0°C (46°F)
Dewpoint: -4.0°C (25°F) [RH = 42%]
Pressure (altimeter): 30.06 inches Hg (1018.0 mb)
Winds: from the SSE (160 degrees) at 5 MPH (4 knots; 2.1 m/s)
Visibility: 6 or more miles (10+ km)
Ceiling: ceiling and visibility are OK
Clouds: unknown
Weather: no significant weather observed at this time

METAR text: LTAC 230650Z VRB02KT CAVOK 06/M04 Q1019 NOSIG RMK RWY21L 23004KT 180V280 RWY03L VRB01KT RWY21R 23003KT 150V280
Conditions at: LTAC (ANKARA/ESENBOGA , TR) observed 0650 UTC 23 March 2019
Temperature: 6.0°C (43°F)
Dewpoint: -4.0°C (25°F) [RH = 49%]
Pressure (altimeter): 30.09 inches Hg (1019.0 mb)
Winds: variable direction winds at 2 MPH (2 knots; 1.0 m/s)
Visibility: 6 or more miles (10+ km)
Ceiling: ceiling and visibility are OK
Clouds: unknown
Weather: no significant weather observed at this time

METAR text: LTAC 230620Z VRB02KT CAVOK 05/M03 Q1019 NOSIG RMK RWY21L VRB02KT RWY03L VRB02KT RWY21R 19003KT 140V270
Conditions at: LTAC (ANKARA/ESENBOGA , TR) observed 0620 UTC 23 March 2019
Temperature: 5.0°C (41°F)
Dewpoint: -3.0°C (27°F) [RH = 56%]
Pressure (altimeter): 30.09 inches Hg (1019.0 mb)
Winds: variable direction winds at 2 MPH (2 knots; 1.0 m/s)
Visibility: 6 or more miles (10+ km)
Ceiling: ceiling and visibility are OK
Clouds: unknown
Weather: no significant weather observed at this time

METAR text: LTAC 230550Z VRB02KT CAVOK 03/M03 Q1019 NOSIG RMK RWY21L 00000KT RWY03L VRB01KT RWY21R 36003KT 330V030
Conditions at: LTAC (ANKARA/ESENBOGA , TR) observed 0550 UTC 23 March 2019
Temperature: 3.0°C (37°F)
Dewpoint: -3.0°C (27°F) [RH = 65%]
Pressure (altimeter): 30.09 inches Hg (1019.0 mb)
Winds: variable direction winds at 2 MPH (2 knots; 1.0 m/s)
Visibility: 6 or more miles (10+ km)
Ceiling: ceiling and visibility are OK
Clouds: unknown
Weather: no significant weather observed at this time

METAR text: LTAC 230520Z VRB02KT CAVOK 01/M03 Q1019 NOSIG RMK RWY21L 35001KT RWY03L VRB02KT RWY21R 02003KT
Conditions at: LTAC (ANKARA/ESENBOGA , TR) observed 0520 UTC 23 March 2019
Temperature: 1.0°C (34°F)
Dewpoint: -3.0°C (27°F) [RH = 75%]
Pressure (altimeter): 30.09 inches Hg (1019.0 mb)
Winds: variable direction winds at 2 MPH (2 knots; 1.0 m/s)
Visibility: 6 or more miles (10+ km)
Ceiling: ceiling and visibility are OK
Clouds: unknown
Weather: no significant weather observed at this time

METAR text: LTAC 230450Z VRB01KT CAVOK 00/M03 Q1019 NOSIG RMK RWY21L 00000KT RWY03L 00000KT RWY21R 04001KT
Conditions at: LTAC (ANKARA/ESENBOGA , TR) observed 0450 UTC 23 March 2019
Temperature: 0.0°C (32°F)
Dewpoint: -3.0°C (27°F) [RH = 80%]
Pressure (altimeter): 30.09 inches Hg (1019.0 mb)
Winds: variable direction winds at 1 MPH (1 knots; 0.5 m/s)
Visibility: 6 or more miles (10+ km)
Ceiling: ceiling and visibility are OK
Clouds: unknown
Weather: no significant weather observed at this time

METAR text: LTAC 230420Z 36003KT CAVOK M02/M04 Q1019 NOSIG RMK RWY21L 00000KT RWY03L 33001KT RWY21R 02003KT
Conditions at: LTAC (ANKARA/ESENBOGA , TR) observed 0420 UTC 23 March 2019
Temperature: -2.0°C (28°F)
Dewpoint: -4.0°C (25°F) [RH = 86%]
Pressure (altimeter): 30.09 inches Hg (1019.0 mb)
Winds: from the N (360 degrees) at 3 MPH (3 knots; 1.5 m/s)
Visibility: 6 or more miles (10+ km)
Ceiling: ceiling and visibility are OK
Clouds: unknown
Weather: no significant weather observed at this time

METAR text: LTAC 230350Z 32005KT CAVOK M02/M05 Q1019 NOSIG RMK RWY21L VRB01KT RWY03L 32004KT RWY21R VRB03KT
Conditions at: LTAC (ANKARA/ESENBOGA , TR) observed 0350 UTC 23 March 2019
Temperature: -2.0°C (28°F)
Dewpoint: -5.0°C (23°F) [RH = 80%]
Pressure (altimeter): 30.09 inches Hg (1019.0 mb)
Winds: from the NW (320 degrees) at 6 MPH (5 knots; 2.6 m/s)
Visibility: 6 or more miles (10+ km)
Ceiling: ceiling and visibility are OK
Clouds: unknown
Weather: no significant weather observed at this time

METAR text: LTAC 230320Z VRB02KT CAVOK M01/M03 Q1019 NOSIG RMK RWY21L 12006KT RWY03L 00000KT RWY21R 14006KT
Conditions at: LTAC (ANKARA/ESENBOGA , TR) observed 0320 UTC 23 March 2019
Temperature: -1.0°C (30°F)
Dewpoint: -3.0°C (27°F) [RH = 86%]
Pressure (altimeter): 30.09 inches Hg (1019.0 mb)
Winds: variable direction winds at 2 MPH (2 knots; 1.0 m/s)
Visibility: 6 or more miles (10+ km)
Ceiling: ceiling and visibility are OK
Clouds: unknown
Weather: no significant weather observed at this time

METAR text: LTAC 230250Z VRB02KT CAVOK 00/M04 Q1019 NOSIG RMK RWY21L 00000KT RWY03L 10003KT 010V120 RWY21R 12003KT
Conditions at: LTAC (ANKARA/ESENBOGA , TR) observed 0250 UTC 23 March 2019
Temperature: 0.0°C (32°F)
Dewpoint: -4.0°C (25°F) [RH = 74%]
Pressure (altimeter): 30.09 inches Hg (1019.0 mb)
Winds: variable direction winds at 2 MPH (2 knots; 1.0 m/s)
Visibility: 6 or more miles (10+ km)
Ceiling: ceiling and visibility are OK
Clouds: unknown
Weather: no significant weather observed at this time

METAR text: LTAC 230220Z VRB03KT CAVOK M01/M03 Q1019 NOSIG RMK RWY21L 00000KT RWY03L VRB02KT RWY21R VRB01KT
Conditions at: LTAC (ANKARA/ESENBOGA , TR) observed 0220 UTC 23 March 2019
Temperature: -1.0°C (30°F)
Dewpoint: -3.0°C (27°F) [RH = 86%]
Pressure (altimeter): 30.09 inches Hg (1019.0 mb)
Winds: variable direction winds at 3 MPH (3 knots; 1.5 m/s)
Visibility: 6 or more miles (10+ km)
Ceiling: ceiling and visibility are OK
Clouds: unknown
Weather: no significant weather observed at this time

METAR text: LTAC 230150Z 32003KT CAVOK M02/M04 Q1020 NOSIG RMK RWY21L 00000KT RWY03L 31003KT RWY21R 33003KT 300V010
Conditions at: LTAC (ANKARA/ESENBOGA , TR) observed 0150 UTC 23 March 2019
Temperature: -2.0°C (28°F)
Dewpoint: -4.0°C (25°F) [RH = 86%]
Pressure (altimeter): 30.12 inches Hg (1020.0 mb)
Winds: from the NW (320 degrees) at 3 MPH (3 knots; 1.5 m/s)
Visibility: 6 or more miles (10+ km)
Ceiling: ceiling and visibility are OK
Clouds: unknown
Weather: no significant weather observed at this time

METAR text: LTAC 230120Z VRB01KT CAVOK M01/M03 Q1020 NOSIG RMK RWY21L 00000KT RWY03L VRB01KT RWY21R 08002KT
Conditions at: LTAC (ANKARA/ESENBOGA , TR) observed 0120 UTC 23 March 2019
Temperature: -1.0°C (30°F)
Dewpoint: -3.0°C (27°F) [RH = 86%]
Pressure (altimeter): 30.12 inches Hg (1020.0 mb)
Winds: variable direction winds at 1 MPH (1 knots; 0.5 m/s)
Visibility: 6 or more miles (10+ km)
Ceiling: ceiling and visibility are OK
Clouds: unknown
Weather: no significant weather observed at this time

METAR text: LTAC 230050Z VRB02KT CAVOK 00/M04 Q1020 NOSIG RMK RWY21L 00000KT RWY03L 03003KT 340V060 RWY21R 03003KT
Conditions at: LTAC (ANKARA/ESENBOGA , TR) observed 0050 UTC 23 March 2019
Temperature: 0.0°C (32°F)
Dewpoint: -4.0°C (25°F) [RH = 74%]
Pressure (altimeter): 30.12 inches Hg (1020.0 mb)
Winds: variable direction winds at 2 MPH (2 knots; 1.0 m/s)
Visibility: 6 or more miles (10+ km)
Ceiling: ceiling and visibility are OK
Clouds: unknown
Weather: no significant weather observed at this time

METAR text: LTAC 230020Z VRB02KT CAVOK 00/M04 Q1020 NOSIG RMK RWY21L 01002KT RWY03L VRB02KT RWY21R 01004KT
Conditions at: LTAC (ANKARA/ESENBOGA , TR) observed 0020 UTC 23 March 2019
Temperature: 0.0°C (32°F)
Dewpoint: -4.0°C (25°F) [RH = 74%]
Pressure (altimeter): 30.12 inches Hg (1020.0 mb)
Winds: variable direction winds at 2 MPH (2 knots; 1.0 m/s)
Visibility: 6 or more miles (10+ km)
Ceiling: ceiling and visibility are OK
Clouds: unknown
Weather: no significant weather observed at this time

METAR text: LTAC 222350Z 01005KT CAVOK 01/M03 Q1020 NOSIG RMK RWY21L VRB02KT RWY03L 36003KT 330V030 RWY21R 36004KT
Conditions at: LTAC (ANKARA/ESENBOGA , TR) observed 2350 UTC 22 March 2019
Temperature: 1.0°C (34°F)
Dewpoint: -3.0°C (27°F) [RH = 75%]
Pressure (altimeter): 30.12 inches Hg (1020.0 mb)
Winds: from the N (10 degrees) at 6 MPH (5 knots; 2.6 m/s)
Visibility: 6 or more miles (10+ km)
Ceiling: ceiling and visibility are OK
Clouds: unknown
Weather: no significant weather observed at this time

METAR text: LTAC 222320Z VRB01KT CAVOK 01/M03 Q1020 NOSIG RMK RWY21L 00000KT RWY03L 00000KT RWY21R 13003KT
Conditions at: LTAC (ANKARA/ESENBOGA , TR) observed 2320 UTC 22 March 2019
Temperature: 1.0°C (34°F)
Dewpoint: -3.0°C (27°F) [RH = 75%]
Pressure (altimeter): 30.12 inches Hg (1020.0 mb)
Winds: variable direction winds at 1 MPH (1 knots; 0.5 m/s)
Visibility: 6 or more miles (10+ km)
Ceiling: ceiling and visibility are OK
Clouds: unknown
Weather: no significant weather observed at this time

METAR text: LTAC 222250Z VRB02KT CAVOK 03/M03 Q1021 NOSIG RMK RWY21L 00000KT RWY03L VRB01KT RWY21R 05003KT
Conditions at: LTAC (ANKARA/ESENBOGA , TR) observed 2250 UTC 22 March 2019
Temperature: 3.0°C (37°F)
Dewpoint: -3.0°C (27°F) [RH = 65%]
Pressure (altimeter): 30.15 inches Hg (1021.0 mb)
Winds: variable direction winds at 2 MPH (2 knots; 1.0 m/s)
Visibility: 6 or more miles (10+ km)
Ceiling: ceiling and visibility are OK
Clouds: unknown
Weather: no significant weather observed at this time

METAR text: LTAC 222220Z 16002KT CAVOK 02/M03 Q1021 NOSIG RMK RWY21L 00000KT RWY03L 16001KT RWY21R VRB02KT
Conditions at: LTAC (ANKARA/ESENBOGA , TR) observed 2220 UTC 22 March 2019
Temperature: 2.0°C (36°F)
Dewpoint: -3.0°C (27°F) [RH = 69%]
Pressure (altimeter): 30.15 inches Hg (1021.0 mb)
Winds: from the SSE (160 degrees) at 2 MPH (2 knots; 1.0 m/s)
Visibility: 6 or more miles (10+ km)
Ceiling: ceiling and visibility are OK
Clouds: unknown
Weather: no significant weather observed at this time

METAR text: LTAC 222150Z VRB01KT CAVOK 02/M03 Q1021 NOSIG RMK RWY21L 00000KT RWY03L 00000KT RWY21R VRB02KT
Conditions at: LTAC (ANKARA/ESENBOGA , TR) observed 2150 UTC 22 March 2019
Temperature: 2.0°C (36°F)
Dewpoint: -3.0°C (27°F) [RH = 69%]
Pressure (altimeter): 30.15 inches Hg (1021.0 mb)
Winds: variable direction winds at 1 MPH (1 knots; 0.5 m/s)
Visibility: 6 or more miles (10+ km)
Ceiling: ceiling and visibility are OK
Clouds: unknown
Weather: no significant weather observed at this time

METAR text: LTAC 222120Z VRB02KT CAVOK 02/M03 Q1021 NOSIG RMK RWY21L 33002KT RWY03L VRB02KT RWY21R 36006KT
Conditions at: LTAC (ANKARA/ESENBOGA , TR) observed 2120 UTC 22 March 2019
Temperature: 2.0°C (36°F)
Dewpoint: -3.0°C (27°F) [RH = 69%]
Pressure (altimeter): 30.15 inches Hg (1021.0 mb)
Winds: variable direction winds at 2 MPH (2 knots; 1.0 m/s)
Visibility: 6 or more miles (10+ km)
Ceiling: ceiling and visibility are OK
Clouds: unknown
Weather: no significant weather observed at this time

METAR text: LTAC 222050Z 36006KT CAVOK 03/M03 Q1021 NOSIG RMK RWY21L 35003KT 330V030 RWY03L 36003KT RWY21R 02005KT
Conditions at: LTAC (ANKARA/ESENBOGA , TR) observed 2050 UTC 22 March 2019
Temperature: 3.0°C (37°F)
Dewpoint: -3.0°C (27°F) [RH = 65%]
Pressure (altimeter): 30.15 inches Hg (1021.0 mb)
Winds: from the N (360 degrees) at 7 MPH (6 knots; 3.1 m/s)
Visibility: 6 or more miles (10+ km)
Ceiling: ceiling and visibility are OK
Clouds: unknown
Weather: no significant weather observed at this time

METAR text: LTAC 222020Z 36005KT CAVOK 03/M03 Q1021 NOSIG RMK RWY21L 01005KT RWY03L 36002KT RWY21R 02004KT
Conditions at: LTAC (ANKARA/ESENBOGA , TR) observed 2020 UTC 22 March 2019
Temperature: 3.0°C (37°F)
Dewpoint: -3.0°C (27°F) [RH = 65%]
Pressure (altimeter): 30.15 inches Hg (1021.0 mb)
Winds: from the N (360 degrees) at 6 MPH (5 knots; 2.6 m/s)
Visibility: 6 or more miles (10+ km)
Ceiling: ceiling and visibility are OK
Clouds: unknown
Weather: no significant weather observed at this time

METAR text: LTAC 221950Z 01006KT CAVOK 04/M03 Q1021 NOSIG RMK RWY21L 02006KT RWY03L 36004KT 330V060 RWY21R 01006KT
Conditions at: LTAC (ANKARA/ESENBOGA , TR) observed 1950 UTC 22 March 2019
Temperature: 4.0°C (39°F)
Dewpoint: -3.0°C (27°F) [RH = 60%]
Pressure (altimeter): 30.15 inches Hg (1021.0 mb)
Winds: from the N (10 degrees) at 7 MPH (6 knots; 3.1 m/s)
Visibility: 6 or more miles (10+ km)
Ceiling: ceiling and visibility are OK
Clouds: unknown
Weather: no significant weather observed at this time

METAR text: LTAC 221920Z 02007KT CAVOK 04/M02 Q1021 NOSIG RMK RWY21L 03005KT RWY03L 02005KT RWY21R 04006KT
Conditions at: LTAC (ANKARA/ESENBOGA , TR) observed 1920 UTC 22 March 2019
Temperature: 4.0°C (39°F)
Dewpoint: -2.0°C (28°F) [RH = 65%]
Pressure (altimeter): 30.15 inches Hg (1021.0 mb)
Winds: from the NNE (20 degrees) at 8 MPH (7 knots; 3.6 m/s)
Visibility: 6 or more miles (10+ km)
Ceiling: ceiling and visibility are OK
Clouds: unknown
Weather: no significant weather observed at this time

METAR text: LTAC 221850Z 01007KT CAVOK 05/M02 Q1021 NOSIG RMK RWY21L 01004KT RWY03L 01004KT RWY21R 02003KT
Conditions at: LTAC (ANKARA/ESENBOGA , TR) observed 1850 UTC 22 March 2019
Temperature: 5.0°C (41°F)
Dewpoint: -2.0°C (28°F) [RH = 60%]
Pressure (altimeter): 30.15 inches Hg (1021.0 mb)
Winds: from the N (10 degrees) at 8 MPH (7 knots; 3.6 m/s)
Visibility: 6 or more miles (10+ km)
Ceiling: ceiling and visibility are OK
Clouds: unknown
Weather: no significant weather observed at this time

METAR text: LTAC 221820Z 01005KT CAVOK 07/M03 Q1021 NOSIG RMK RWY21L 35004KT RWY03L 01004KT RWY21R 35004KT
Conditions at: LTAC (ANKARA/ESENBOGA , TR) observed 1820 UTC 22 March 2019
Temperature: 7.0°C (45°F)
Dewpoint: -3.0°C (27°F) [RH = 49%]
Pressure (altimeter): 30.15 inches Hg (1021.0 mb)
Winds: from the N (10 degrees) at 6 MPH (5 knots; 2.6 m/s)
Visibility: 6 or more miles (10+ km)
Ceiling: ceiling and visibility are OK
Clouds: unknown
Weather: no significant weather observed at this time

METAR text: LTAC 221750Z 01004KT CAVOK 08/M04 Q1021 NOSIG RMK RWY21L 35004KT RWY03L VRB01KT RWY21R 03003KT 360V080
Conditions at: LTAC (ANKARA/ESENBOGA , TR) observed 1750 UTC 22 March 2019
Temperature: 8.0°C (46°F)
Dewpoint: -4.0°C (25°F) [RH = 42%]
Pressure (altimeter): 30.15 inches Hg (1021.0 mb)
Winds: from the N (10 degrees) at 5 MPH (4 knots; 2.1 m/s)
Visibility: 6 or more miles (10+ km)
Ceiling: ceiling and visibility are OK
Clouds: unknown
Weather: no significant weather observed at this time

METAR text: LTAC 221720Z 33003KT 300V030 9999 FEW040 08/M03 Q1021 NOSIG RMK RWY21L VRB02KT RWY03L VRB02KT RWY21R 01004KT 330V060
Conditions at: LTAC (ANKARA/ESENBOGA , TR) observed 1720 UTC 22 March 2019
Temperature: 8.0°C (46°F)
Dewpoint: -3.0°C (27°F) [RH = 46%]
Pressure (altimeter): 30.15 inches Hg (1021.0 mb)
Winds: from the NNW (330 degrees) at 3 MPH (3 knots; 1.5 m/s)
Visibility: 6 or more miles (10+ km)
Ceiling: at least 12,000 feet AGL
Clouds: few clouds at 4000 feet AGL
Weather: no significant weather observed at this time

METAR text: LTAC 221650Z 13003KT 100V170 9999 FEW040 10/M06 Q1021 NOSIG RMK RWY21L 07007KT 040V130 RWY03L VRB02KT RWY21R 06006KT 030V130
Conditions at: LTAC (ANKARA/ESENBOGA , TR) observed 1650 UTC 22 March 2019
Temperature: 10.0°C (50°F)
Dewpoint: -6.0°C (21°F) [RH = 32%]
Pressure (altimeter): 30.15 inches Hg (1021.0 mb)
Winds: from the SE (130 degrees) at 3 MPH (3 knots; 1.5 m/s)
Visibility: 6 or more miles (10+ km)
Ceiling: at least 12,000 feet AGL
Clouds: few clouds at 4000 feet AGL
Weather: no significant weather observed at this time

METAR text: LTAC 221620Z 04004KT 9999 FEW040 11/M05 Q1020 NOSIG RMK RWY21L 01004KT RWY03L 02004KT RWY21R 03004KT
Conditions at: LTAC (ANKARA/ESENBOGA , TR) observed 1620 UTC 22 March 2019
Temperature: 11.0°C (52°F)
Dewpoint: -5.0°C (23°F) [RH = 32%]
Pressure (altimeter): 30.12 inches Hg (1020.0 mb)
Winds: from the NE (40 degrees) at 5 MPH (4 knots; 2.1 m/s)
Visibility: 6 or more miles (10+ km)
Ceiling: at least 12,000 feet AGL
Clouds: few clouds at 4000 feet AGL
Weather: no significant weather observed at this time

METAR text: LTAC 221550Z VRB02KT 9999 FEW040 11/M05 Q1020 NOSIG RMK RWY21L 02004KT RWY03L VRB01KT RWY21R 05004KT 020V120
Conditions at: LTAC (ANKARA/ESENBOGA , TR) observed 1550 UTC 22 March 2019
Temperature: 11.0°C (52°F)
Dewpoint: -5.0°C (23°F) [RH = 32%]
Pressure (altimeter): 30.12 inches Hg (1020.0 mb)
Winds: variable direction winds at 2 MPH (2 knots; 1.0 m/s)
Visibility: 6 or more miles (10+ km)
Ceiling: at least 12,000 feet AGL
Clouds: few clouds at 4000 feet AGL
Weather: no significant weather observed at this time

METAR text: LTAC 221520Z 07003KT 9999 FEW040 12/M05 Q1020 NOSIG RMK RWY21L 06004KT RWY03L 07003KT 010V120 RWY21R 05003KT
Conditions at: LTAC (ANKARA/ESENBOGA , TR) observed 1520 UTC 22 March 2019
Temperature: 12.0°C (54°F)
Dewpoint: -5.0°C (23°F) [RH = 30%]
Pressure (altimeter): 30.12 inches Hg (1020.0 mb)
Winds: from the ENE (70 degrees) at 3 MPH (3 knots; 1.5 m/s)
Visibility: 6 or more miles (10+ km)
Ceiling: at least 12,000 feet AGL
Clouds: few clouds at 4000 feet AGL
Weather: no significant weather observed at this time

METAR text: LTAC 221450Z 04005KT 360V080 9999 FEW040 12/M05 Q1020 NOSIG RMK RWY21L 05003KT 350V130 RWY03L VRB02KT RWY21R VRB02KT
Conditions at: LTAC (ANKARA/ESENBOGA , TR) observed 1450 UTC 22 March 2019
Temperature: 12.0°C (54°F)
Dewpoint: -5.0°C (23°F) [RH = 30%]
Pressure (altimeter): 30.12 inches Hg (1020.0 mb)
Winds: from the NE (40 degrees) at 6 MPH (5 knots; 2.6 m/s)
Visibility: 6 or more miles (10+ km)
Ceiling: at least 12,000 feet AGL
Clouds: few clouds at 4000 feet AGL
Weather: no significant weather observed at this time

METAR text: LTAC 221420Z 04005KT 9999 FEW040 12/M03 Q1020 NOSIG RMK RWY21L VRB03KT RWY03L 03004KT 350V060 RWY21R 12004KT 080V190
Conditions at: LTAC (ANKARA/ESENBOGA , TR) observed 1420 UTC 22 March 2019
Temperature: 12.0°C (54°F)
Dewpoint: -3.0°C (27°F) [RH = 35%]
Pressure (altimeter): 30.12 inches Hg (1020.0 mb)
Winds: from the NE (40 degrees) at 6 MPH (5 knots; 2.6 m/s)
Visibility: 6 or more miles (10+ km)
Ceiling: at least 12,000 feet AGL
Clouds: few clouds at 4000 feet AGL
Weather: no significant weather observed at this time

METAR text: LTAC 221350Z 11004KT 9999 FEW040 12/M04 Q1021 NOSIG RMK RWY21L 22003KT 140V280 RWY03L 02003KT 340V080 RWY21R VRB03KT
Conditions at: LTAC (ANKARA/ESENBOGA , TR) observed 1350 UTC 22 March 2019
Temperature: 12.0°C (54°F)
Dewpoint: -4.0°C (25°F) [RH = 32%]
Pressure (altimeter): 30.15 inches Hg (1021.0 mb)
Winds: from the ESE (110 degrees) at 5 MPH (4 knots; 2.1 m/s)
Visibility: 6 or more miles (10+ km)
Ceiling: at least 12,000 feet AGL
Clouds: few clouds at 4000 feet AGL
Weather: no significant weather observed at this time

METAR text: LTAC 221320Z VRB04KT 9999 FEW040 12/M03 Q1021 NOSIG RMK RWY21L VRB02KT RWY03L VRB02KT RWY21R 08003KT 350V140
Conditions at: LTAC (ANKARA/ESENBOGA , TR) observed 1320 UTC 22 March 2019
Temperature: 12.0°C (54°F)
Dewpoint: -3.0°C (27°F) [RH = 35%]
Pressure (altimeter): 30.15 inches Hg (1021.0 mb)
Winds: variable direction winds at 5 MPH (4 knots; 2.1 m/s)
Visibility: 6 or more miles (10+ km)
Ceiling: at least 12,000 feet AGL
Clouds: few clouds at 4000 feet AGL
Weather: no significant weather observed at this time

METAR text: LTAC 221250Z 09005KT 9999 FEW040 12/M04 Q1021 NOSIG RMK RWY21L 36004KT 290V100 RWY03L VRB03KT RWY21R 06005KT 340V120
Conditions at: LTAC (ANKARA/ESENBOGA , TR) observed 1250 UTC 22 March 2019
Temperature: 12.0°C (54°F)
Dewpoint: -4.0°C (25°F) [RH = 32%]
Pressure (altimeter): 30.15 inches Hg (1021.0 mb)
Winds: from the E (90 degrees) at 6 MPH (5 knots; 2.6 m/s)
Visibility: 6 or more miles (10+ km)
Ceiling: at least 12,000 feet AGL
Clouds: few clouds at 4000 feet AGL
Weather: no significant weather observed at this time

METAR text: LTAC 221220Z 34004KT 9999 FEW040 12/M04 Q1022 NOSIG RMK RWY21L VRB03KT RWY03L VRB03KT RWY21R VRB04KT
Conditions at: LTAC (ANKARA/ESENBOGA , TR) observed 1220 UTC 22 March 2019
Temperature: 12.0°C (54°F)
Dewpoint: -4.0°C (25°F) [RH = 32%]
Pressure (altimeter): 30.18 inches Hg (1022.0 mb)
Winds: from the NNW (340 degrees) at 5 MPH (4 knots; 2.1 m/s)
Visibility: 6 or more miles (10+ km)
Ceiling: at least 12,000 feet AGL
Clouds: few clouds at 4000 feet AGL
Weather: no significant weather observed at this time

METAR text: LTAC 221150Z VRB04KT 9999 FEW040 11/M04 Q1022 NOSIG RMK RWY21L 13004KT RWY03L 08004KT 040V130 RWY21R VRB04KT
Conditions at: LTAC (ANKARA/ESENBOGA , TR) observed 1150 UTC 22 March 2019
Temperature: 11.0°C (52°F)
Dewpoint: -4.0°C (25°F) [RH = 35%]
Pressure (altimeter): 30.18 inches Hg (1022.0 mb)
Winds: variable direction winds at 5 MPH (4 knots; 2.1 m/s)
Visibility: 6 or more miles (10+ km)
Ceiling: at least 12,000 feet AGL
Clouds: few clouds at 4000 feet AGL
Weather: no significant weather observed at this time

Forecast for: LTAC (ANKARA/ESENBOGA , TR)
Text: TAF LTAC 232240Z 2400/2424 VRB02KT CAVOK
Forecast period: 0000 to 0700 UTC 24 March 2019
Forecast type: FROM: standard forecast or significant change
Winds: variable direction winds at 2 MPH (2 knots; 1.0 m/s)
Visibility: 6 or more miles 10+ km)
Ceiling: unknown
Clouds: missing
Weather: NSW  (no significant weather)
Text: BECMG 2407/2409 SCT040
Forecast period: 0700 to 1200 UTC 24 March 2019
Forecast type: BECOMING: Conditions expected to become as follows by 0900 UTC 24 March 2019
Winds: variable direction winds at 2 MPH (2 knots; 1.0 m/s)
Visibility: 6 or more miles 10+ km)
Ceiling: at least 12,000 feet AGL
Clouds: scattered clouds at 4000 feet AGL
Weather: NSW  (no significant weather)
Text: BECMG 2412/2414 03015KT
Forecast period: 1200 to 1800 UTC 24 March 2019
Forecast type: BECOMING: Conditions expected to become as follows by 1400 UTC 24 March 2019
Winds: from the NNE (30 degrees) at 17 MPH (15 knots; 7.7 m/s)
Visibility: 6 or more miles 10+ km)
Ceiling: at least 12,000 feet AGL
Clouds: scattered clouds at 4000 feet AGL
Weather: NSW  (no significant weather)
Text: BECMG 2418/2420 VRB02KT
Forecast period: 1800 UTC 24 March 2019 to 0000 UTC 25 March 2019
Forecast type: BECOMING: Conditions expected to become as follows by 2000 UTC 24 March 2019
Winds: variable direction winds at 2 MPH (2 knots; 1.0 m/s)
Visibility: 6 or more miles 10+ km)
Ceiling: at least 12,000 feet AGL
Clouds: scattered clouds at 4000 feet AGL
Weather: NSW  (no significant weather)